Mount Shasta, California
Current Conditions -  °F | °C
As of 6:56 AM on Monday 24 Nov 2014 (Local Time) from KMHS Reporting Station
Clear Clear  
Wind Chill: 27°   Ceiling: Unl
Heat Index: 27°   Visibility: 10mi
Dew Point: 22°   Wind: 3mph
Humidity: 81%   Direction: 40°NE
Pressure: 30.41"   Gusts: NA
Location:  41.31°N, 122.31°W
Report Text: KMHS 241456Z AUTO 04003KT 10SM CLR M03/M06 A3041 RMK AO2 SLP340 T10281056 51003
Loading
Personal Weather Stations






























Interactive Weather Map New forecast layout! Learn more

10-Day Weather Forecast

Advertisements
Track Severe Weather on mobile